createdAt,value
2017-04-10T00:00:05.697Z,8.49
2017-04-10T00:00:46.476Z,8.52
2017-04-10T00:01:32.760Z,8.55
2017-04-10T00:02:13.555Z,8.52
2017-04-10T00:02:54.381Z,8.56
2017-04-10T00:03:34.997Z,8.51
2017-04-10T00:04:16.627Z,8.51
2017-04-10T00:04:58.278Z,8.55
2017-04-10T00:05:39.014Z,8.46
2017-04-10T00:06:19.571Z,8.51
2017-04-10T00:07:01.249Z,8.49
2017-04-10T00:07:43.939Z,8.46
2017-04-10T00:08:24.601Z,8.45
2017-04-10T00:09:05.355Z,8.52
2017-04-10T00:09:46.234Z,8.44
2017-04-10T00:10:26.953Z,8.42
2017-04-10T00:11:07.613Z,8.44
2017-04-10T00:11:48.379Z,8.42
2017-04-10T00:12:30.074Z,8.42
2017-04-10T00:13:11.727Z,8.42
2017-04-10T00:13:52.474Z,8.37
2017-04-10T00:14:33.140Z,8.33
2017-04-10T00:15:15.846Z,8.45
2017-04-10T00:15:58.542Z,8.34
2017-04-10T00:16:40.213Z,8.36
2017-04-10T00:17:21.874Z,8.37
2017-04-10T00:18:02.574Z,8.3
2017-04-10T00:18:43.274Z,8.3
2017-04-10T00:19:23.877Z,8.31
2017-04-10T00:20:06.692Z,8.28
2017-04-10T00:20:48.438Z,8.28
2017-04-10T00:21:29.168Z,8.28
2017-04-10T00:22:10.789Z,8.28
2017-04-10T00:22:51.497Z,8.23
2017-04-10T00:23:32.099Z,8.26
2017-04-10T00:24:12.735Z,8.31
2017-04-10T00:24:53.457Z,8.24
2017-04-10T00:25:34.069Z,8.27
2017-04-10T00:26:14.707Z,8.26
2017-04-10T00:26:55.429Z,8.31
2017-04-10T00:27:36.014Z,8.23
2017-04-10T00:28:16.745Z,8.19
2017-04-10T00:28:57.494Z,8.24
2017-04-10T00:29:38.189Z,8.16
2017-04-10T00:30:19.912Z,8.26
2017-04-10T00:31:00.687Z,8.23
2017-04-10T00:31:41.439Z,8.26
2017-04-10T00:32:22.186Z,8.31
2017-04-10T00:33:02.971Z,8.23
2017-04-10T00:33:44.756Z,8.15
2017-04-10T00:34:25.478Z,8.13
2017-04-10T00:35:07.366Z,8.28
2017-04-10T00:35:48.102Z,8.13
2017-04-10T00:36:28.865Z,8.13
2017-04-10T00:37:11.604Z,8.23
2017-04-10T00:37:52.303Z,8.3
2017-04-10T00:38:32.879Z,8.23
2017-04-10T00:39:13.627Z,8.1
2017-04-10T00:39:55.375Z,8.23
2017-04-10T00:40:36.153Z,8.24
2017-04-10T00:41:16.727Z,8.15
2017-04-10T00:41:57.413Z,8.15
2017-04-10T00:42:38.011Z,8.18
2017-04-10T00:43:18.677Z,8.19
2017-04-10T00:44:01.408Z,8.12
2017-04-10T00:44:42.144Z,8.18
2017-04-10T00:49:55.201Z,8.09
2017-04-10T00:50:35.829Z,8.1
2017-04-10T00:51:16.565Z,8.1
2017-04-10T00:51:57.133Z,8.12
2017-04-10T00:52:37.795Z,8.12
2017-04-10T00:53:18.468Z,8.09
2017-04-10T00:53:59.184Z,8.1
2017-04-10T00:54:39.761Z,8.12
2017-04-10T00:55:20.494Z,8.18
2017-04-10T00:56:01.234Z,8.16
2017-04-10T00:56:41.803Z,8.15
2017-04-10T00:57:22.376Z,8.19
2017-04-10T00:58:05.130Z,8.19
2017-04-10T00:58:45.839Z,8.16
2017-04-10T00:59:31.220Z,8.13
2017-04-10T01:00:11.901Z,8.18
2017-04-10T01:00:52.666Z,8.18
2017-04-10T01:01:33.234Z,8.18
2017-04-10T01:02:13.968Z,8.13
2017-04-10T01:02:54.723Z,8.08
2017-04-10T01:03:36.560Z,8.15
2017-04-10T01:04:18.400Z,8.1
2017-04-10T01:04:59.137Z,8.13
2017-04-10T01:05:39.813Z,8.15
2017-04-10T01:06:20.545Z,8.09
2017-04-10T01:07:02.223Z,8.09
2017-04-10T01:07:43.900Z,8.1
2017-04-10T01:08:24.548Z,8.09
2017-04-10T01:09:07.254Z,8.06
2017-04-10T01:09:47.904Z,8.12
2017-04-10T01:10:28.661Z,8.13
2017-04-10T01:11:09.417Z,8.1
2017-04-10T01:11:50.173Z,8.12
2017-04-10T01:12:30.736Z,8.12
2017-04-10T01:13:11.404Z,8.12
2017-04-10T01:13:53.154Z,8
2017-04-10T01:14:33.741Z,8.05
2017-04-10T01:15:14.482Z,8.03
2017-04-10T01:15:57.590Z,8.08
2017-04-10T01:16:38.163Z,8.03
2017-04-10T01:17:18.904Z,8
2017-04-10T01:18:10.237Z,7.95
2017-04-10T01:18:51.958Z,8.09
2017-04-10T01:19:32.510Z,8.06
2017-04-10T01:20:15.090Z,7.95
2017-04-10T01:20:55.816Z,8.03
2017-04-10T01:21:36.413Z,8.08
2017-04-10T01:22:16.983Z,8.05
2017-04-10T01:22:57.729Z,8.05
2017-04-10T01:23:38.510Z,8.09
2017-04-10T01:24:19.052Z,8.06
2017-04-10T01:24:59.781Z,8.09
2017-04-10T01:25:41.561Z,8.15
2017-04-10T01:26:22.125Z,8.05
2017-04-10T01:27:02.883Z,8.09
2017-04-10T01:27:43.646Z,8.1
2017-04-10T01:28:24.398Z,8.18
2017-04-10T01:29:05.156Z,8.12
2017-04-10T01:29:45.910Z,8.12
2017-04-10T01:30:26.582Z,8.18
2017-04-10T01:31:08.338Z,8.19
2017-04-10T01:31:49.105Z,8.16
2017-04-10T01:32:29.856Z,8.19
2017-04-10T01:33:10.480Z,8.15
2017-04-10T01:33:51.194Z,8.1
2017-04-10T01:34:31.903Z,8.16
2017-04-10T01:35:12.447Z,8.12
2017-04-10T01:35:53.247Z,8.2
2017-04-10T01:36:33.957Z,8.12
2017-04-10T01:37:14.554Z,8.13
2017-04-10T01:37:55.285Z,8.12
2017-04-10T01:38:38.043Z,8.15
2017-04-10T01:39:18.744Z,8.15
2017-04-10T01:39:59.305Z,8.1
2017-04-10T01:40:40.054Z,8.09
2017-04-10T01:41:23.708Z,8.13
2017-04-10T01:42:04.407Z,8.13
2017-04-10T01:42:45.165Z,8.09
2017-04-10T01:43:25.916Z,8.13
2017-04-10T01:44:06.668Z,8.01
2017-04-10T01:44:47.423Z,8.05
2017-04-10T01:45:30.147Z,8.03
2017-04-10T01:46:10.798Z,8
2017-04-10T01:46:57.064Z,8.01
2017-04-10T01:47:37.670Z,7.95
2017-04-10T01:48:22.909Z,8
2017-04-10T01:49:03.597Z,8.01
2017-04-10T01:49:44.285Z,8.06
2017-04-10T01:50:24.852Z,7.94
2017-04-10T01:51:06.554Z,8
2017-04-10T01:51:47.336Z,7.91
2017-04-10T01:52:27.887Z,7.94
2017-04-10T01:53:09.667Z,7.93
2017-04-10T01:53:50.349Z,7.91
2017-04-10T01:54:30.916Z,7.9
2017-04-10T01:55:12.596Z,7.88
2017-04-10T01:55:53.331Z,7.91
2017-04-10T01:56:33.955Z,7.91
2017-04-10T01:57:14.721Z,7.88
2017-04-10T01:57:55.503Z,7.93
2017-04-10T01:58:36.093Z,7.94
2017-04-10T01:59:16.850Z,7.8
2017-04-10T01:59:57.560Z,7.85
2017-04-10T02:00:38.179Z,7.8
2017-04-10T02:01:21.045Z,7.77
2017-04-10T02:02:01.790Z,7.79
2017-04-10T02:02:42.521Z,7.79
2017-04-10T02:03:25.328Z,7.82
2017-04-10T02:04:07.111Z,7.76
2017-04-10T02:04:47.864Z,7.82
2017-04-10T02:05:28.622Z,7.82
2017-04-10T02:06:10.401Z,7.79
2017-04-10T02:06:51.152Z,7.83
2017-04-10T02:07:31.748Z,7.82
2017-04-10T02:08:14.539Z,7.8
2017-04-10T02:09:01.272Z,7.76
2017-04-10T02:09:42.897Z,7.8
2017-04-10T02:10:23.503Z,7.83
2017-04-10T02:11:04.255Z,7.67
2017-04-10T02:11:47.047Z,7.72
2017-04-10T02:12:27.753Z,7.76
2017-04-10T02:13:08.337Z,7.72
2017-04-10T02:13:48.992Z,7.7
2017-04-10T02:14:30.801Z,7.72
2017-04-10T02:15:12.605Z,7.83
2017-04-10T02:15:53.223Z,7.8
2017-04-10T02:16:33.941Z,7.88
2017-04-10T02:17:14.641Z,7.91
2017-04-10T02:17:55.391Z,7.87
2017-04-10T02:18:36.165Z,7.94
2017-04-10T02:19:17.004Z,7.94
2017-04-10T02:19:57.764Z,7.98
2017-04-10T02:20:38.519Z,7.98
2017-04-10T02:21:25.214Z,8.01
2017-04-10T02:22:05.867Z,7.95
2017-04-10T02:22:47.644Z,8.09
2017-04-10T02:23:30.449Z,8.2
2017-04-10T02:24:11.095Z,8.15
2017-04-10T02:24:53.905Z,8.13
2017-04-10T02:25:36.605Z,8.23
2017-04-10T02:26:18.291Z,8.2
2017-04-10T02:26:58.935Z,8.27
2017-04-10T02:27:39.691Z,8.28
2017-04-10T02:28:21.371Z,8.28
2017-04-10T02:29:02.126Z,8.31
2017-04-10T02:29:42.881Z,8.41
2017-04-10T02:30:34.285Z,8.38
2017-04-10T02:31:14.947Z,8.38
2017-04-10T02:31:55.693Z,8.48
2017-04-10T02:32:37.477Z,8.49
2017-04-10T02:33:18.230Z,8.51
2017-04-10T02:33:59.906Z,8.53
2017-04-10T02:34:40.567Z,8.52
2017-04-10T02:35:22.222Z,8.51
2017-04-10T02:36:02.878Z,8.61
2017-04-10T02:36:43.539Z,8.53
2017-04-10T02:37:30.065Z,8.63
2017-04-10T02:38:10.712Z,8.63
2017-04-10T02:38:51.400Z,8.63
2017-04-10T02:39:32.079Z,8.66
2017-04-10T02:40:12.777Z,8.67
2017-04-10T02:40:53.367Z,8.7
2017-04-10T02:41:35.028Z,8.61
2017-04-10T02:42:17.662Z,8.76
2017-04-10T02:42:58.399Z,8.73
2017-04-10T02:43:39.036Z,8.61
2017-04-10T02:44:19.703Z,8.67
2017-04-10T02:45:06.897Z,8.63
2017-04-10T02:45:49.497Z,8.63
2017-04-10T02:46:31.159Z,8.71
2017-04-10T02:47:17.345Z,8.69
2017-04-10T02:47:58.013Z,8.67
2017-04-10T02:48:39.719Z,8.61
2017-04-10T02:49:20.330Z,8.46
2017-04-10T02:50:00.992Z,8.53
2017-04-10T02:50:41.682Z,8.55
2017-04-10T02:51:22.322Z,8.55
2017-04-10T02:52:02.953Z,8.55
2017-04-10T02:52:44.663Z,8.51
2017-04-10T02:53:32.011Z,8.49
2017-04-10T02:54:12.628Z,8.44
2017-04-10T02:54:53.244Z,8.42
2017-04-10T02:55:34.845Z,8.48
2017-04-10T02:56:20.076Z,8.44
2017-04-10T02:57:00.634Z,8.44
2017-04-10T02:57:47.833Z,8.38
2017-04-10T02:58:28.514Z,8.31
2017-04-10T02:59:14.029Z,8.34
2017-04-10T02:59:54.611Z,8.37
2017-04-10T03:00:35.259Z,8.45
2017-04-10T03:01:15.940Z,8.31
2017-04-10T03:02:07.493Z,8.31
2017-04-10T03:02:48.069Z,8.36
2017-04-10T03:03:28.730Z,8.42
2017-04-10T03:04:11.429Z,8.37
2017-04-10T03:04:57.801Z,8.34
2017-04-10T03:05:38.450Z,8.36
2017-04-10T03:06:25.866Z,8.33
2017-04-10T03:07:06.516Z,8.37
2017-04-10T03:07:47.109Z,8.37
2017-04-10T03:08:27.805Z,8.38
2017-04-10T03:09:08.394Z,8.38
2017-04-10T03:09:49.038Z,8.41
2017-04-10T03:10:30.644Z,8.37
2017-04-10T03:11:22.091Z,8.41
2017-04-10T03:12:02.659Z,8.27
2017-04-10T03:12:44.334Z,8.41
2017-04-10T03:13:26.949Z,8.26
2017-04-10T03:14:09.633Z,8.26
2017-04-10T03:14:51.210Z,8.41
2017-04-10T03:15:32.885Z,8.36
2017-04-10T03:16:14.563Z,8.31
2017-04-10T03:16:57.178Z,8.27
2017-04-10T03:17:38.870Z,8.28
2017-04-10T03:18:30.378Z,8.31
2017-04-10T03:19:13.054Z,8.28
2017-04-10T03:19:53.706Z,8.23
2017-04-10T03:20:34.372Z,8.24
2017-04-10T03:21:16.030Z,8.27
2017-04-10T03:21:56.721Z,8.16
2017-04-10T03:22:38.345Z,8.13
2017-04-10T03:23:18.925Z,8.15
2017-04-10T03:24:00.584Z,8.15
2017-04-10T03:24:41.221Z,8.28
2017-04-10T03:25:21.792Z,8.27
2017-04-10T03:26:02.457Z,8.19
2017-04-10T03:26:45.126Z,8.26
2017-04-10T03:27:25.735Z,8.13
2017-04-10T03:28:07.369Z,8.26
2017-04-10T03:28:48.007Z,8.24
2017-04-10T03:29:28.563Z,8.13
2017-04-10T03:30:11.170Z,8.15
2017-04-10T03:30:51.809Z,8.26
2017-04-10T03:31:32.384Z,8.26
2017-04-10T03:32:24.907Z,8.19
2017-04-10T03:33:07.591Z,8.27
2017-04-10T03:33:48.170Z,8.3
2017-04-10T03:34:29.832Z,8.26
2017-04-10T03:35:10.468Z,8.28
2017-04-10T03:35:51.041Z,8.28
2017-04-10T03:36:32.715Z,8.33
2017-04-10T03:37:14.305Z,8.38
2017-04-10T03:37:54.876Z,8.36
2017-04-10T03:38:37.561Z,8.33
2017-04-10T03:39:18.237Z,8.42
2017-04-10T03:39:59.851Z,8.36
2017-04-10T03:40:40.420Z,8.42
2017-04-10T03:41:21.071Z,8.46
2017-04-10T03:42:07.741Z,8.55
2017-04-10T03:42:50.352Z,8.48
2017-04-10T03:43:30.907Z,8.45
2017-04-10T03:44:11.563Z,8.48
2017-04-10T03:44:52.164Z,8.52
2017-04-10T03:45:32.751Z,8.51
2017-04-10T03:46:13.337Z,8.51
2017-04-10T03:46:55.014Z,8.63
2017-04-10T03:47:35.697Z,8.55
2017-04-10T03:48:21.097Z,8.63
2017-04-10T03:49:01.662Z,8.66
2017-04-10T03:49:42.315Z,8.7
2017-04-10T03:50:22.910Z,8.71
2017-04-10T03:51:03.610Z,8.69
2017-04-10T03:51:44.189Z,8.63
2017-04-10T03:52:29.339Z,8.7
2017-04-10T03:53:11.934Z,8.67
2017-04-10T03:53:54.570Z,8.64
2017-04-10T03:54:39.897Z,8.67
2017-04-10T03:55:22.507Z,8.73
2017-04-10T03:56:08.885Z,8.7
2017-04-10T03:56:50.468Z,8.71
2017-04-10T03:57:32.398Z,8.7
2017-04-10T03:58:18.852Z,8.7
2017-04-10T03:59:05.433Z,8.78
2017-04-10T03:59:46.125Z,8.7
2017-04-10T04:00:27.761Z,8.74
2017-04-10T04:01:08.414Z,8.71
2017-04-10T04:01:49.067Z,8.71
2017-04-10T04:02:29.722Z,8.67
2017-04-10T04:03:12.360Z,8.71
2017-04-10T04:03:53.981Z,8.71
2017-04-10T04:04:34.551Z,8.71
2017-04-10T04:05:15.204Z,8.67
2017-04-10T04:05:55.872Z,8.71
2017-04-10T04:06:38.539Z,8.71
2017-04-10T04:07:19.113Z,8.76
2017-04-10T04:08:00.783Z,8.7
2017-04-10T04:08:41.429Z,8.71
2017-04-10T04:09:22.084Z,8.69
2017-04-10T04:10:03.768Z,8.73
2017-04-10T04:10:46.465Z,8.64
2017-04-10T04:11:27.120Z,8.69
2017-04-10T04:12:07.768Z,8.66
2017-04-10T04:12:49.487Z,8.71
2017-04-10T04:13:35.982Z,8.69
2017-04-10T04:14:18.641Z,8.78
2017-04-10T04:14:59.289Z,8.78
2017-04-10T04:15:41.993Z,8.87
2017-04-10T04:16:28.380Z,8.82
2017-04-10T04:17:09.032Z,8.82
2017-04-10T04:17:49.695Z,8.87
2017-04-10T04:18:43.005Z,8.81
2017-04-10T04:19:23.690Z,8.78
2017-04-10T04:20:04.387Z,8.78
2017-04-10T04:20:46.012Z,8.78
2017-04-10T04:21:26.649Z,8.81
2017-04-10T04:22:07.324Z,8.78
2017-04-10T04:23:03.852Z,8.88
2017-04-10T04:23:46.549Z,8.94
2017-04-10T04:24:28.228Z,8.89
2017-04-10T04:25:09.905Z,8.89
2017-04-10T04:25:52.512Z,8.88
2017-04-10T04:26:33.179Z,8.99
2017-04-10T04:27:15.880Z,8.94
2017-04-10T04:27:57.499Z,8.87
2017-04-10T04:28:38.099Z,9
2017-04-10T04:29:18.743Z,8.94
2017-04-10T04:30:01.400Z,8.94
2017-04-10T04:30:41.974Z,8.94
2017-04-10T04:31:23.660Z,8.97
2017-04-10T04:32:04.304Z,9
2017-04-10T04:32:49.565Z,9
2017-04-10T04:33:30.230Z,8.97
2017-04-10T04:34:12.919Z,9
2017-04-10T04:34:54.601Z,8.99
2017-04-10T04:35:36.272Z,9.03
2017-04-10T04:36:17.949Z,9
2017-04-10T04:36:59.629Z,9.1
2017-04-10T04:37:41.307Z,9.1
2017-04-10T04:38:21.956Z,9.02
2017-04-10T04:39:02.612Z,9.11
2017-04-10T04:39:43.262Z,9.06
2017-04-10T04:40:23.913Z,9.04
2017-04-10T04:41:04.576Z,9.06
2017-04-10T04:41:45.236Z,9.03
2017-04-10T04:42:25.828Z,9.11
2017-04-10T04:43:11.393Z,9.16
2017-04-10T04:43:52.069Z,9.1
2017-04-10T04:44:34.705Z,9.19
2017-04-10T04:45:15.287Z,9.21
2017-04-10T04:46:01.871Z,9.23
2017-04-10T04:46:44.651Z,9.08
2017-04-10T04:47:25.269Z,9.11
2017-04-10T04:48:07.965Z,9.23
2017-04-10T04:48:49.717Z,9.13
2017-04-10T04:49:30.357Z,9.18
2017-04-10T04:50:15.973Z,9.26
2017-04-10T04:50:57.587Z,9.18
2017-04-10T04:51:40.269Z,9.22
2017-04-10T04:52:20.981Z,9.22
2017-04-10T04:53:02.681Z,9.25
2017-04-10T04:53:45.301Z,9.29
2017-04-10T04:54:25.869Z,9.25
2017-04-10T04:55:06.522Z,9.26
2017-04-10T04:55:49.178Z,9.31
2017-04-10T04:56:31.801Z,9.25
2017-04-10T04:57:12.369Z,9.37
2017-04-10T04:57:53.043Z,9.46
2017-04-10T04:58:34.701Z,9.4
2017-04-10T04:59:15.437Z,9.48
2017-04-10T04:59:56.148Z,9.51
2017-04-10T05:00:36.775Z,9.55
2017-04-10T05:01:17.412Z,9.5
2017-04-10T05:01:58.091Z,9.58
2017-04-10T05:02:39.850Z,9.69
2017-04-10T05:03:22.556Z,9.65
2017-04-10T05:04:05.221Z,9.69
2017-04-10T05:04:45.901Z,9.62
2017-04-10T05:05:31.374Z,9.76
2017-04-10T05:06:13.044Z,9.77
2017-04-10T05:07:00.456Z,9.76
2017-04-10T05:07:46.953Z,9.77
2017-04-10T05:08:28.565Z,9.82
2017-04-10T05:09:09.257Z,9.86
2017-04-10T05:09:49.828Z,9.84
2017-04-10T05:10:31.505Z,9.86
2017-04-10T05:11:17.746Z,9.82
2017-04-10T05:11:58.430Z,9.84
2017-04-10T05:12:39.001Z,9.86
2017-04-10T05:13:19.656Z,9.97
2017-04-10T05:14:07.212Z,10.07
2017-04-10T05:14:47.894Z,10.02
2017-04-10T05:15:28.507Z,10.09
2017-04-10T05:16:11.180Z,10.12
2017-04-10T05:16:52.884Z,10.15
2017-04-10T05:17:33.583Z,10.19
2017-04-10T05:18:14.190Z,10.17
2017-04-10T05:18:59.413Z,10.25
2017-04-10T05:19:42.114Z,10.25
2017-04-10T05:20:24.825Z,10.16
2017-04-10T05:21:06.500Z,10.26
2017-04-10T05:21:47.156Z,10.16
2017-04-10T05:22:27.798Z,10.19
2017-04-10T05:23:10.542Z,10.28
2017-04-10T05:23:51.157Z,10.19
2017-04-10T05:24:37.442Z,10.22
2017-04-10T05:25:23.932Z,10.31
2017-04-10T05:26:05.607Z,10.41
2017-04-10T05:26:46.258Z,10.33
2017-04-10T05:27:26.921Z,10.34
2017-04-10T05:28:08.628Z,10.35
2017-04-10T05:28:51.310Z,10.38
2017-04-10T05:29:31.950Z,10.4
2017-04-10T05:30:12.660Z,10.44
2017-04-10T05:30:53.355Z,10.38
2017-04-10T05:31:34.020Z,10.37
2017-04-10T05:32:16.701Z,10.41
2017-04-10T05:32:58.321Z,10.41
2017-04-10T05:33:40.048Z,10.41
2017-04-10T05:34:20.611Z,10.4
2017-04-10T05:35:02.284Z,10.49
2017-04-10T05:48:21.750Z,10.64
2017-04-10T05:49:02.432Z,10.61
2017-04-10T05:49:43.055Z,10.61
2017-04-10T05:50:30.453Z,10.69
2017-04-10T05:51:12.317Z,10.6
2017-04-10T05:51:54.988Z,10.64
2017-04-10T05:52:37.275Z,10.76
2017-04-10T05:53:19.063Z,10.68
2017-04-10T05:54:00.393Z,10.64
2017-04-10T05:54:47.126Z,10.68
2017-04-10T05:55:29.729Z,10.69
2017-04-10T05:56:10.380Z,10.68
2017-04-10T05:56:51.029Z,10.75
2017-04-10T05:57:36.665Z,10.76
2017-04-10T05:58:17.255Z,10.75
2017-04-10T05:58:57.929Z,10.72
2017-04-10T05:59:43.468Z,10.79
2017-04-10T06:00:24.125Z,10.81
2017-04-10T06:01:05.822Z,10.87
2017-04-10T06:01:47.481Z,10.82
2017-04-10T06:02:36.688Z,10.87
2017-04-10T06:03:17.277Z,10.93
2017-04-10T06:03:58.034Z,10.94
2017-04-10T06:04:38.683Z,11
2017-04-10T06:05:19.269Z,10.99
2017-04-10T06:06:00.945Z,11.04
2017-04-10T06:06:41.638Z,10.97
2017-04-10T06:07:27.232Z,10.99
2017-04-10T06:08:07.808Z,10.97
2017-04-10T06:08:53.097Z,11.02
2017-04-10T06:09:34.770Z,11.11
2017-04-10T06:10:17.448Z,11.02
2017-04-10T06:10:57.982Z,11.05
2017-04-10T06:11:49.563Z,11.11
2017-04-10T06:12:31.214Z,11.12
2017-04-10T06:13:11.857Z,11.08
2017-04-10T06:13:52.738Z,11.17
2017-04-10T06:14:33.369Z,11.14
2017-04-10T06:15:14.018Z,11.11
2017-04-10T06:15:54.678Z,11.15
2017-04-10T06:16:37.376Z,11.11
2017-04-10T06:17:18.061Z,11.17
2017-04-10T06:17:58.836Z,11.17
2017-04-10T06:18:39.445Z,11.08
2017-04-10T06:19:36.132Z,11.15
2017-04-10T06:20:16.920Z,11.18
2017-04-10T06:21:04.272Z,11.19
2017-04-10T06:21:44.847Z,11.17
2017-04-10T06:22:25.614Z,11.23
2017-04-10T06:23:06.296Z,11.23
2017-04-10T06:23:46.954Z,11.23
2017-04-10T06:24:27.597Z,11.26
2017-04-10T06:25:12.875Z,11.26
2017-04-10T06:25:53.509Z,11.29
2017-04-10T06:26:34.172Z,11.22
2017-04-10T06:27:14.816Z,11.22
2017-04-10T06:27:55.624Z,11.26
2017-04-10T06:28:36.204Z,11.26
2017-04-10T06:29:16.840Z,11.29
2017-04-10T06:29:57.530Z,11.29
2017-04-10T06:30:38.227Z,11.19
2017-04-10T06:31:18.809Z,11.41
2017-04-10T06:31:59.505Z,11.29
2017-04-10T06:32:40.140Z,11.35
2017-04-10T06:33:20.794Z,11.3
2017-04-10T06:34:01.410Z,11.32
2017-04-10T06:34:42.071Z,11.27
2017-04-10T06:35:22.756Z,11.4
2017-04-10T06:36:03.496Z,11.41
2017-04-10T06:36:44.142Z,11.37
2017-04-10T06:37:24.779Z,11.45
2017-04-10T06:38:06.496Z,11.45
2017-04-10T06:38:47.194Z,11.47
2017-04-10T06:39:27.791Z,11.43
2017-04-10T06:40:08.409Z,11.45
2017-04-10T06:40:50.034Z,11.51
2017-04-10T06:41:30.619Z,11.52
2017-04-10T06:42:11.194Z,11.48
2017-04-10T06:42:51.842Z,11.52
2017-04-10T06:43:38.373Z,11.48
2017-04-10T06:44:19.063Z,11.57
2017-04-10T06:44:59.651Z,11.57
2017-04-10T06:45:40.317Z,11.59
2017-04-10T06:46:22.001Z,11.55
2017-04-10T06:47:03.679Z,11.59
2017-04-10T06:47:44.481Z,11.54
2017-04-10T06:48:25.056Z,11.57
2017-04-10T06:49:10.628Z,11.62
2017-04-10T06:49:51.375Z,11.6
2017-04-10T06:50:36.689Z,11.57
2017-04-10T06:51:17.272Z,11.62
2017-04-10T06:51:58.080Z,11.59
2017-04-10T06:52:40.845Z,11.5
2017-04-10T06:53:21.589Z,11.57
2017-04-10T06:54:02.155Z,11.59
2017-04-10T06:54:44.759Z,11.54
2017-04-10T06:55:31.732Z,11.65
2017-04-10T06:56:12.309Z,11.62
2017-04-10T06:56:53.241Z,11.6
2017-04-10T06:57:34.001Z,11.75
2017-04-10T06:58:21.209Z,11.62
2017-04-10T06:59:04.111Z,11.72
2017-04-10T06:59:59.585Z,11.66
2017-04-10T07:00:41.350Z,11.68
2017-04-10T07:01:23.813Z,11.77
2017-04-10T07:02:04.745Z,11.65
2017-04-10T07:02:45.351Z,11.78
2017-04-10T07:03:25.972Z,11.77
2017-04-10T07:04:19.359Z,11.78
2017-04-10T07:05:01.082Z,11.75
2017-04-10T07:05:41.659Z,11.81
2017-04-10T07:06:28.038Z,11.86
2017-04-10T07:07:09.645Z,11.86
2017-04-10T07:07:50.350Z,11.91
2017-04-10T07:08:42.777Z,11.91
2017-04-10T07:09:24.455Z,12.03
2017-04-10T07:10:09.774Z,11.99
2017-04-10T07:10:51.494Z,11.91
2017-04-10T07:11:32.152Z,11.94
2017-04-10T07:12:18.745Z,11.99
2017-04-10T07:12:59.329Z,11.94
2017-04-10T07:13:41.025Z,11.94
2017-04-10T07:14:21.632Z,11.91
2017-04-10T07:15:02.207Z,11.95
2017-04-10T07:15:42.886Z,11.88
2017-04-10T07:16:35.252Z,11.88
2017-04-10T07:17:15.823Z,11.87
2017-04-10T07:18:03.057Z,11.8
2017-04-10T07:18:44.728Z,11.81
2017-04-10T07:19:30.991Z,11.86
2017-04-10T07:20:16.555Z,11.9
2017-04-10T07:21:10.008Z,11.95
2017-04-10T07:21:52.625Z,11.87
2017-04-10T07:22:33.251Z,11.95
2017-04-10T07:23:18.713Z,11.9
2017-04-10T07:23:59.313Z,11.88
2017-04-10T07:24:50.619Z,11.87
2017-04-10T07:25:33.265Z,11.86
2017-04-10T07:26:13.880Z,11.95
2017-04-10T07:26:54.511Z,11.91
2017-04-10T07:27:35.120Z,11.99
2017-04-10T07:28:16.814Z,11.91
2017-04-10T07:28:57.455Z,11.88
2017-04-10T07:29:38.119Z,11.94
2017-04-10T07:30:30.739Z,11.9
2017-04-10T07:31:13.505Z,11.88
2017-04-10T07:31:54.200Z,11.91
2017-04-10T07:32:36.905Z,11.97
2017-04-10T07:33:28.208Z,11.94
2017-04-10T07:34:14.794Z,11.97
2017-04-10T07:35:00.256Z,11.95
2017-04-10T07:35:51.765Z,11.99
2017-04-10T07:36:34.469Z,11.94
2017-04-10T07:37:19.730Z,12.03
2017-04-10T07:38:00.293Z,12.09
2017-04-10T07:38:41.044Z,12.04
2017-04-10T07:39:23.692Z,12.13
2017-04-10T07:40:17.294Z,12.1
2017-04-10T07:40:57.907Z,12.22
2017-04-10T07:41:50.076Z,12.28
2017-04-10T07:42:31.694Z,12.29
2017-04-10T07:43:13.291Z,12.29
2017-04-10T07:43:53.911Z,12.29
2017-04-10T07:44:36.579Z,12.35
2017-04-10T07:45:17.258Z,12.46
2017-04-10T07:45:57.975Z,12.39
2017-04-10T07:46:38.573Z,12.53
2017-04-10T07:47:24.028Z,12.5
2017-04-10T07:48:06.790Z,12.5
2017-04-10T07:48:47.548Z,12.46
2017-04-10T07:49:28.138Z,12.54
2017-04-10T07:50:08.733Z,12.58
2017-04-10T07:50:49.360Z,12.68
2017-04-10T07:51:30.059Z,12.68
2017-04-10T07:52:10.653Z,12.72
2017-04-10T07:52:52.318Z,12.64
2017-04-10T07:53:34.032Z,12.68
2017-04-10T07:54:19.365Z,12.64
2017-04-10T07:55:00.078Z,12.65
2017-04-10T07:55:45.401Z,12.57
2017-04-10T07:56:27.102Z,12.62
2017-04-10T07:57:07.833Z,12.57
2017-04-10T07:57:50.534Z,12.67
2017-04-10T07:58:32.214Z,12.57
2017-04-10T07:59:18.903Z,12.68
2017-04-10T08:00:00.584Z,12.73
2017-04-10T08:00:41.237Z,12.7
2017-04-10T08:01:26.918Z,12.73
2017-04-10T08:35:59.503Z,12.6
2017-04-10T08:36:40.209Z,12.7
2017-04-10T08:37:21.926Z,12.57
2017-04-10T08:38:07.536Z,12.6
2017-04-10T08:38:48.109Z,12.57
2017-04-10T08:39:30.809Z,12.55
2017-04-10T08:40:11.500Z,12.61
2017-04-10T08:40:52.202Z,12.5
2017-04-10T08:41:32.765Z,12.53
2017-04-10T08:42:13.449Z,12.46
2017-04-10T08:43:11.106Z,12.4
2017-04-10T08:43:53.912Z,12.47
2017-04-10T08:44:35.587Z,12.43
2017-04-10T08:45:16.245Z,12.25
2017-04-10T08:45:57.941Z,12.35
2017-04-10T08:46:38.571Z,12.37
2017-04-10T08:47:19.271Z,12.28
2017-04-10T08:48:00.006Z,12.37
2017-04-10T08:48:40.736Z,12.36
2017-04-10T08:49:22.443Z,12.37
2017-04-10T08:50:04.201Z,12.43
2017-04-10T08:50:45.837Z,12.4
2017-04-10T08:51:28.542Z,12.37
2017-04-10T08:52:10.346Z,12.39
2017-04-10T08:52:53.072Z,12.42
2017-04-10T08:53:33.756Z,12.49
2017-04-10T08:54:19.931Z,12.43
2017-04-10T08:55:00.523Z,12.37
2017-04-10T08:55:41.218Z,12.5
2017-04-10T08:56:21.948Z,12.54
2017-04-10T08:57:04.698Z,12.55
2017-04-10T08:57:45.265Z,12.61
2017-04-10T08:58:25.877Z,12.57
2017-04-10T08:59:06.504Z,12.62
2017-04-10T08:59:47.221Z,12.7
2017-04-10T09:00:27.783Z,12.8
2017-04-10T09:01:10.477Z,12.85
2017-04-10T09:01:52.187Z,12.8
2017-04-10T09:02:33.010Z,12.91
2017-04-10T09:03:13.649Z,12.87
2017-04-10T09:03:59.304Z,12.94
2017-04-10T09:04:40.072Z,12.94
2017-04-10T09:05:20.640Z,13.05
2017-04-10T09:06:01.290Z,13.15
2017-04-10T09:06:43.936Z,13.33
2017-04-10T09:07:24.506Z,13.33
2017-04-10T09:08:07.149Z,13.38
2017-04-10T09:08:47.799Z,13.41
2017-04-10T09:09:28.448Z,13.47
2017-04-10T09:10:09.121Z,13.56
2017-04-10T09:10:54.783Z,13.57
2017-04-10T09:11:35.435Z,13.6
2017-04-10T09:12:18.148Z,13.52
2017-04-10T09:12:59.800Z,13.57
2017-04-10T09:13:40.423Z,13.62
2017-04-10T09:14:22.174Z,13.56
2017-04-10T09:15:02.802Z,13.63
2017-04-10T09:15:45.525Z,13.56
2017-04-10T09:16:28.195Z,13.63
2017-04-10T09:17:08.871Z,13.67
2017-04-10T09:17:49.638Z,13.56
2017-04-10T09:18:30.414Z,13.57
2017-04-10T09:19:11.117Z,13.52
2017-04-10T09:19:52.795Z,13.53
2017-04-10T09:20:33.544Z,13.49
2017-04-10T09:21:14.185Z,13.46
2017-04-10T09:21:56.899Z,13.37
2017-04-10T09:22:37.558Z,13.38
2017-04-10T09:23:22.773Z,13.27
2017-04-10T09:24:03.463Z,13.31
2017-04-10T09:24:45.149Z,13.3
2017-04-10T09:25:26.839Z,13.25
2017-04-10T09:26:07.632Z,13.16
2017-04-10T09:26:50.309Z,13.09
2017-04-10T09:27:35.842Z,13.09
2017-04-10T09:28:21.319Z,12.97
2017-04-10T09:29:07.802Z,13
2017-04-10T09:29:48.470Z,12.95
2017-04-10T09:30:29.209Z,12.98
2017-04-10T09:31:10.936Z,13.01
2017-04-10T09:31:51.699Z,13
2017-04-10T09:32:33.470Z,13.01
2017-04-10T09:33:14.231Z,13.05
2017-04-10T09:33:55.997Z,13.13
2017-04-10T09:34:37.631Z,13.05
2017-04-10T09:35:18.277Z,13.09
2017-04-10T09:36:01.044Z,13.09
2017-04-10T09:36:41.740Z,13.12
2017-04-10T09:37:22.352Z,13.09
2017-04-10T09:38:03.159Z,13.05
2017-04-10T09:38:43.833Z,13.11
2017-04-10T09:49:30.367Z,12.93
2017-04-10T09:50:10.948Z,13
2017-04-10T09:50:53.594Z,13.05
2017-04-10T09:51:34.211Z,13.09
2017-04-10T09:52:22.334Z,13.16
2017-04-10T10:05:19.306Z,13.67
2017-04-10T10:06:00.192Z,13.56
2017-04-10T10:06:40.963Z,13.59
2017-04-10T10:07:26.534Z,13.54
2017-04-10T10:08:07.290Z,13.49
2017-04-10T10:08:52.821Z,13.41
2017-04-10T10:09:35.532Z,13.28
2017-04-10T10:10:16.179Z,13.23
2017-04-10T10:10:58.913Z,13.23
2017-04-10T10:11:39.605Z,13.09
2017-04-10T10:12:20.392Z,13.05
2017-04-10T10:13:00.993Z,13
2017-04-10T10:13:42.768Z,12.98
2017-04-10T10:14:23.532Z,12.87
2017-04-10T10:15:04.335Z,12.93
2017-04-10T10:15:46.084Z,12.78
2017-04-10T10:16:26.839Z,12.83
2017-04-10T10:17:12.541Z,12.79
2017-04-10T10:18:07.968Z,12.76
2017-04-10T10:19:05.548Z,12.7
2017-04-10T10:19:57.067Z,12.65
2017-04-10T10:20:37.819Z,12.55
2017-04-10T10:21:18.529Z,12.57
2017-04-10T10:22:05.064Z,12.57
2017-04-10T10:35:23.970Z,12.45
2017-04-10T10:36:04.532Z,12.53
2017-04-10T10:36:45.266Z,12.58
2017-04-10T10:37:30.796Z,12.64
2017-04-10T10:38:11.400Z,12.75
2017-04-10T10:38:52.121Z,12.83
2017-04-10T10:39:32.859Z,12.91